createdAt,value
2019-01-13T00:00:40.006Z,89.00
2019-01-13T00:01:39.982Z,89.19
2019-01-13T00:02:39.932Z,89.09
2019-01-13T00:03:39.894Z,89.39
2019-01-13T00:04:39.837Z,89.68
2019-01-13T00:05:39.791Z,89.68
2019-01-13T00:06:39.746Z,89.97
2019-01-13T00:07:39.701Z,89.68
2019-01-13T00:08:39.657Z,90.26
2019-01-13T00:09:39.612Z,90.64
2019-01-13T00:10:39.567Z,90.94
2019-01-13T00:11:39.516Z,91.61
2019-01-13T00:12:39.471Z,91.08
2019-01-13T00:13:39.439Z,91.03
2019-01-13T00:14:39.403Z,90.70
2019-01-13T00:15:39.337Z,91.18
2019-01-13T00:16:39.300Z,91.47
2019-01-13T00:17:39.257Z,91.18
2019-01-13T00:18:39.225Z,91.38
2019-01-13T00:19:39.180Z,91.56
2019-01-13T00:20:39.115Z,91.86
2019-01-13T00:21:39.091Z,91.76
2019-01-13T00:22:39.026Z,91.66
2019-01-13T00:23:38.990Z,91.76
2019-01-13T00:24:38.943Z,92.05
2019-01-13T00:25:38.904Z,92.05
2019-01-13T00:26:38.868Z,92.54
2019-01-13T00:27:38.802Z,92.73
2019-01-13T00:28:38.778Z,92.68
2019-01-13T00:29:38.733Z,92.44
2019-01-13T00:30:38.667Z,92.68
2019-01-13T00:31:38.623Z,93.41
2019-01-13T00:32:38.591Z,93.55
2019-01-13T00:33:38.546Z,92.97
2019-01-13T00:34:38.501Z,93.60
2019-01-13T00:35:38.457Z,93.46
2019-01-13T00:36:38.407Z,93.26
2019-01-13T00:37:38.354Z,93.51
2019-01-13T00:38:38.322Z,93.07
2019-01-13T00:39:38.286Z,93.26
2019-01-13T00:40:38.220Z,93.26
2019-01-13T00:41:38.197Z,93.55
2019-01-13T00:42:38.131Z,93.65
2019-01-13T00:43:38.093Z,93.94
2019-01-13T00:44:38.093Z,94.33
2019-01-13T00:45:38.017Z,94.04
2019-01-13T00:46:37.951Z,94.04
2019-01-13T00:47:37.930Z,94.23
2019-01-13T00:48:37.861Z,93.65
2019-01-13T00:49:37.824Z,93.55
2019-01-13T00:50:37.780Z,93.65
2019-01-13T00:51:37.735Z,93.36
2019-01-13T00:52:37.704Z,93.65
2019-01-13T00:53:37.652Z,93.85
2019-01-13T00:54:37.607Z,94.13
2019-01-13T00:55:37.568Z,94.04
2019-01-13T00:56:37.516Z,94.04
2019-01-13T00:57:37.479Z,93.55
2019-01-13T00:58:37.420Z,93.46
2019-01-13T00:59:37.381Z,93.36
2019-01-13T01:00:38.519Z,93.85
2019-01-13T01:01:37.278Z,93.46
2019-01-13T01:02:37.246Z,93.46
2019-01-13T01:03:37.210Z,93.55
2019-01-13T01:04:37.157Z,93.55
2019-01-13T01:05:37.106Z,93.36
2019-01-13T01:06:37.025Z,93.17
2019-01-13T01:07:37.031Z,93.17
2019-01-13T01:08:36.964Z,92.97
2019-01-13T01:09:36.932Z,92.73
2019-01-13T01:10:36.887Z,92.68
2019-01-13T01:11:36.840Z,92.58
2019-01-13T01:12:36.797Z,93.26
2019-01-13T01:13:36.749Z,93.07
2019-01-13T01:14:36.707Z,93.55
2019-01-13T01:15:36.670Z,93.65
2019-01-13T01:16:36.626Z,93.65
2019-01-13T01:17:36.573Z,93.65
2019-01-13T01:18:36.528Z,93.65
2019-01-13T01:19:36.478Z,94.13
2019-01-13T01:20:36.433Z,94.13
2019-01-13T01:21:36.389Z,94.04
2019-01-13T01:22:36.344Z,94.13
2019-01-13T01:23:36.347Z,94.13
2019-01-13T01:24:36.246Z,93.94
2019-01-13T01:25:36.201Z,93.65
2019-01-13T01:26:36.178Z,93.85
2019-01-13T01:27:36.119Z,93.85
2019-01-13T01:28:36.081Z,93.65
2019-01-13T01:29:36.034Z,93.75
2019-01-13T01:30:35.984Z,93.75
2019-01-13T01:31:35.932Z,93.85
2019-01-13T01:32:35.889Z,93.65
2019-01-13T01:33:35.863Z,93.65
2019-01-13T01:34:35.806Z,93.85
2019-01-13T01:35:35.775Z,94.04
2019-01-13T01:36:35.715Z,94.04
2019-01-13T01:37:35.613Z,94.04
2019-01-13T01:38:35.626Z,94.43
2019-01-13T01:39:35.576Z,94.62
2019-01-13T01:40:35.536Z,94.13
2019-01-13T01:41:35.492Z,94.04
2019-01-13T01:42:35.446Z,94.62
2019-01-13T01:43:35.401Z,94.23
2019-01-13T01:44:35.349Z,94.43
2019-01-13T01:45:35.304Z,94.81
2019-01-13T01:46:35.273Z,95.29
2019-01-13T01:47:35.230Z,94.81
2019-01-13T01:48:35.177Z,95.10
2019-01-13T01:49:35.133Z,95.20
2019-01-13T01:50:35.087Z,95.01
2019-01-13T01:51:35.056Z,95.68
2019-01-13T01:52:34.998Z,95.49
2019-01-13T01:53:34.946Z,95.49
2019-01-13T01:54:34.914Z,95.39
2019-01-13T01:55:34.877Z,95.39
2019-01-13T01:56:34.818Z,95.20
2019-01-13T01:57:34.767Z,95.01
2019-01-13T01:58:34.721Z,95.49
2019-01-13T01:59:34.691Z,96.17
2019-01-13T02:00:40.451Z,96.07
2019-01-13T02:01:34.609Z,96.07
2019-01-13T02:02:34.555Z,96.07
2019-01-13T02:03:34.497Z,96.17
2019-01-13T02:04:34.467Z,96.65
2019-01-13T02:05:34.451Z,96.17
2019-01-13T02:06:34.422Z,96.17
2019-01-13T02:07:34.339Z,96.07
2019-01-13T02:08:34.294Z,96.31
2019-01-13T02:09:34.243Z,95.59
2019-01-13T02:10:34.184Z,95.83
2019-01-13T02:11:34.160Z,95.68
2019-01-13T02:12:34.115Z,95.59
2019-01-13T02:13:34.064Z,96.17
2019-01-13T02:14:34.017Z,96.26
2019-01-13T02:15:33.981Z,96.17
2019-01-13T02:16:33.938Z,96.17
2019-01-13T02:17:33.878Z,96.02
2019-01-13T02:18:33.851Z,95.97
2019-01-13T02:19:33.797Z,96.17
2019-01-13T02:20:33.740Z,96.17
2019-01-13T02:21:33.712Z,96.75
2019-01-13T02:22:33.654Z,96.36
2019-01-13T02:23:33.614Z,96.17
2019-01-13T02:24:33.558Z,96.17
2019-01-13T02:25:33.519Z,96.36
2019-01-13T02:26:33.474Z,96.36
2019-01-13T02:27:33.437Z,96.07
2019-01-13T02:28:33.386Z,96.17
2019-01-13T02:29:33.345Z,96.75
2019-01-13T02:30:33.287Z,96.26
2019-01-13T02:31:33.243Z,97.13
2019-01-13T02:32:33.215Z,97.62
2019-01-13T02:33:33.167Z,97.42
2019-01-13T02:34:33.116Z,97.91
2019-01-13T02:35:33.072Z,97.72
2019-01-13T02:36:33.027Z,98.20
2019-01-13T02:37:32.996Z,98.10
2019-01-13T02:38:32.942Z,98.15
2019-01-13T02:39:32.896Z,98.83
2019-01-13T02:40:32.847Z,99.36
2019-01-13T02:41:32.795Z,99.89
2019-01-13T02:42:32.757Z,99.99
2019-01-13T02:43:32.714Z,99.84
2019-01-13T02:44:32.667Z,99.99
2019-01-13T02:45:32.630Z,99.99
2019-01-13T02:46:32.578Z,99.99
2019-01-13T02:47:32.545Z,99.99
2019-01-13T02:48:32.492Z,99.99
2019-01-13T02:49:32.442Z,99.99
2019-01-13T02:50:32.397Z,99.99
2019-01-13T02:51:32.358Z,99.99
2019-01-13T02:52:32.311Z,99.99
2019-01-13T02:53:32.275Z,99.99
2019-01-13T02:54:32.230Z,99.94
2019-01-13T02:55:32.177Z,99.99
2019-01-13T02:56:32.126Z,99.99
2019-01-13T02:57:32.082Z,99.99
2019-01-13T02:58:32.050Z,99.99
2019-01-13T02:59:31.986Z,99.99
2019-01-13T03:00:31.947Z,99.99
2019-01-13T03:01:31.893Z,99.99
2019-01-13T03:02:31.849Z,99.99
2019-01-13T03:03:31.820Z,99.99
2019-01-13T03:04:31.779Z,99.99
2019-01-13T03:05:31.720Z,99.99
2019-01-13T03:06:31.667Z,99.99
2019-01-13T03:07:31.630Z,99.99
2019-01-13T03:08:31.590Z,99.99
2019-01-13T03:09:31.553Z,99.99
2019-01-13T03:10:31.501Z,99.99
2019-01-13T03:11:31.450Z,99.99
2019-01-13T03:12:31.419Z,99.99
2019-01-13T03:13:31.351Z,99.99
2019-01-13T03:14:31.327Z,99.99
2019-01-13T03:15:31.282Z,99.99
2019-01-13T03:16:31.216Z,99.99
2019-01-13T03:17:31.178Z,99.99
2019-01-13T03:18:31.134Z,99.99
2019-01-13T03:19:31.094Z,99.99
2019-01-13T03:20:31.036Z,99.99
2019-01-13T03:21:31.010Z,99.99
2019-01-13T03:22:30.957Z,99.99
2019-01-13T03:23:30.911Z,99.99
2019-01-13T03:24:30.874Z,99.99
2019-01-13T03:25:30.833Z,99.99
2019-01-13T03:26:30.776Z,99.99
2019-01-13T03:27:30.735Z,99.99
2019-01-13T03:28:30.672Z,99.99
2019-01-13T03:29:30.640Z,99.99
2019-01-13T03:30:30.599Z,99.99
2019-01-13T03:31:30.548Z,99.99
2019-01-13T03:32:30.493Z,99.99
2019-01-13T03:33:30.454Z,99.99
2019-01-13T03:34:30.412Z,99.65
2019-01-13T03:35:30.355Z,99.84
2019-01-13T03:36:30.310Z,99.55
2019-01-13T03:37:30.265Z,99.99
2019-01-13T03:38:30.241Z,99.94
2019-01-13T03:39:30.183Z,99.99
2019-01-13T03:40:30.082Z,99.84
2019-01-13T03:41:30.093Z,99.51
2019-01-13T03:42:30.061Z,99.41
2019-01-13T03:43:30.015Z,99.41
2019-01-13T03:44:29.950Z,99.31
2019-01-13T03:45:31.150Z,98.83
2019-01-13T03:46:29.880Z,98.93
2019-01-13T03:47:29.827Z,98.73
2019-01-13T03:48:29.794Z,98.63
2019-01-13T03:49:29.750Z,99.51
2019-01-13T03:50:29.688Z,99.51
2019-01-13T03:51:29.654Z,98.93
2019-01-13T03:52:29.601Z,98.44
2019-01-13T03:53:29.793Z,98.44
2019-01-13T03:54:29.498Z,98.93
2019-01-13T03:55:29.453Z,98.35
2019-01-13T03:56:29.417Z,98.83
2019-01-13T03:57:29.384Z,98.44
2019-01-13T03:58:29.317Z,98.05
2019-01-13T03:59:29.285Z,98.15
2019-01-13T04:00:29.240Z,97.77
2019-01-13T04:01:29.158Z,97.86
2019-01-13T04:02:29.150Z,97.77
2019-01-13T04:03:29.112Z,97.77
2019-01-13T04:04:29.070Z,97.96
2019-01-13T04:05:29.015Z,98.20
2019-01-13T04:06:28.978Z,97.77
2019-01-13T04:07:28.934Z,97.67
2019-01-13T04:08:28.867Z,97.62
2019-01-13T04:09:28.835Z,97.77
2019-01-13T04:10:28.777Z,97.62
2019-01-13T04:11:28.753Z,97.86
2019-01-13T04:12:28.701Z,98.25
2019-01-13T04:13:28.664Z,98.54
2019-01-13T04:14:28.604Z,98.63
2019-01-13T04:15:28.559Z,98.73
2019-01-13T04:16:28.517Z,99.11
2019-01-13T04:17:28.484Z,98.93
2019-01-13T04:18:28.431Z,98.35
2019-01-13T04:19:28.385Z,98.54
2019-01-13T04:20:28.340Z,99.02
2019-01-13T04:21:28.376Z,99.02
2019-01-13T04:22:28.259Z,99.02
2019-01-13T04:23:28.200Z,98.83
2019-01-13T04:24:28.150Z,98.35
2019-01-13T04:25:28.118Z,98.35
2019-01-13T04:26:28.057Z,98.25
2019-01-13T04:27:28.034Z,99.11
2019-01-13T04:28:27.968Z,99.02
2019-01-13T04:29:27.935Z,98.73
2019-01-13T04:30:27.898Z,98.83
2019-01-13T04:31:27.845Z,98.35
2019-01-13T04:32:27.787Z,98.63
2019-01-13T04:33:27.756Z,99.31
2019-01-13T04:34:27.705Z,99.31
2019-01-13T04:35:27.665Z,99.46
2019-01-13T04:36:27.620Z,99.41
2019-01-13T04:37:27.562Z,99.65
2019-01-13T04:38:27.546Z,99.41
2019-01-13T04:39:27.493Z,99.69
2019-01-13T04:40:27.429Z,99.41
2019-01-13T04:41:27.382Z,99.51
2019-01-13T04:42:27.351Z,98.63
2019-01-13T04:43:27.301Z,99.11
2019-01-13T04:44:27.247Z,98.54
2019-01-13T04:45:27.223Z,98.44
2019-01-13T04:46:27.190Z,98.35
2019-01-13T04:47:27.130Z,98.44
2019-01-13T04:48:27.067Z,98.05
2019-01-13T04:49:27.037Z,98.05
2019-01-13T04:50:26.977Z,98.73
2019-01-13T04:51:26.941Z,98.73
2019-01-13T04:52:26.887Z,98.54
2019-01-13T04:53:26.843Z,98.15
2019-01-13T04:54:26.818Z,98.35
2019-01-13T04:55:26.773Z,98.25
2019-01-13T04:56:26.729Z,98.05
2019-01-13T04:57:26.671Z,98.05
2019-01-13T04:58:26.625Z,98.05
2019-01-13T04:59:26.595Z,97.57
2019-01-13T05:00:26.547Z,97.28
2019-01-13T05:01:34.167Z,97.67
2019-01-13T05:02:26.445Z,98.05
2019-01-13T05:03:26.392Z,97.86
2019-01-13T05:04:26.368Z,97.81
2019-01-13T05:05:26.315Z,98.30
2019-01-13T05:06:26.279Z,98.10
2019-01-13T05:07:26.225Z,98.20
2019-01-13T05:08:26.171Z,98.68
2019-01-13T05:09:26.122Z,98.68
2019-01-13T05:10:26.085Z,98.30
2019-01-13T05:11:26.044Z,98.88
2019-01-13T05:12:27.806Z,98.49
2019-01-13T05:13:25.976Z,98.88
2019-01-13T05:14:25.921Z,97.91
2019-01-13T05:15:25.860Z,98.39
2019-01-13T05:16:25.807Z,98.39
2019-01-13T05:17:25.770Z,97.86
2019-01-13T05:18:25.729Z,97.91
2019-01-13T05:19:25.671Z,97.67
2019-01-13T05:20:25.647Z,97.77
2019-01-13T05:21:25.594Z,97.67
2019-01-13T05:22:25.550Z,97.86
2019-01-13T05:23:25.499Z,97.47
2019-01-13T05:24:25.469Z,97.57
2019-01-13T05:25:25.409Z,97.86
2019-01-13T05:26:25.363Z,98.20
2019-01-13T05:27:25.311Z,98.68
2019-01-13T05:28:25.265Z,99.26
2019-01-13T05:29:25.242Z,99.65
2019-01-13T05:30:25.188Z,99.55
2019-01-13T05:31:25.143Z,99.55
2019-01-13T05:32:25.100Z,99.74
2019-01-13T05:33:25.052Z,99.55
2019-01-13T05:34:25.002Z,99.65
2019-01-13T05:35:24.958Z,99.16
2019-01-13T05:36:24.925Z,99.36
2019-01-13T05:37:24.868Z,99.36
2019-01-13T05:38:24.816Z,99.07
2019-01-13T05:39:24.791Z,99.07
2019-01-13T05:40:24.732Z,99.26
2019-01-13T05:41:24.687Z,99.16
2019-01-13T05:42:24.656Z,99.36
2019-01-13T05:43:24.597Z,99.26
2019-01-13T05:44:24.545Z,99.16
2019-01-13T05:45:24.509Z,99.46
2019-01-13T05:46:24.458Z,99.46
2019-01-13T05:47:24.416Z,99.46
2019-01-13T05:48:24.371Z,99.55
2019-01-13T05:49:24.319Z,99.99
2019-01-13T05:50:24.273Z,99.99
2019-01-13T05:51:24.249Z,99.99
2019-01-13T05:52:24.196Z,99.84
2019-01-13T05:53:24.151Z,99.99
2019-01-13T05:54:24.093Z,99.99
2019-01-13T05:55:24.071Z,99.99
2019-01-13T05:56:24.015Z,99.99
2019-01-13T05:57:23.978Z,99.99
2019-01-13T05:58:23.919Z,99.84
2019-01-13T05:59:23.875Z,99.99
2019-01-13T06:00:23.822Z,99.65
2019-01-13T06:01:23.776Z,99.46
2019-01-13T06:02:23.747Z,99.46
2019-01-13T06:03:23.698Z,99.74
2019-01-13T06:04:23.641Z,99.65
2019-01-13T06:05:23.609Z,99.65
2019-01-13T06:06:23.558Z,99.65
2019-01-13T06:07:23.519Z,99.46
2019-01-13T06:08:23.468Z,99.16
2019-01-13T06:09:23.423Z,99.07
2019-01-13T06:10:23.370Z,99.16
2019-01-13T06:11:23.338Z,99.74
2019-01-13T06:12:23.288Z,99.99
2019-01-13T06:13:23.236Z,99.89
2019-01-13T06:14:23.211Z,99.99
2019-01-13T06:15:23.170Z,99.99
2019-01-13T06:16:23.099Z,99.99
2019-01-13T06:17:23.075Z,99.99
2019-01-13T06:18:23.008Z,99.99
2019-01-13T06:19:22.966Z,99.99
2019-01-13T06:20:22.919Z,99.99
2019-01-13T06:21:22.873Z,99.99
2019-01-13T06:22:22.841Z,99.99
2019-01-13T06:23:22.804Z,99.99
2019-01-13T06:24:22.738Z,99.99
2019-01-13T06:25:22.702Z,99.99
2019-01-13T06:26:22.654Z,99.99
2019-01-13T06:27:22.623Z,99.99
2019-01-13T06:28:22.556Z,99.99
2019-01-13T06:29:22.528Z,99.99
2019-01-13T06:30:22.473Z,99.99
2019-01-13T06:31:22.433Z,99.99
2019-01-13T06:32:22.400Z,99.99
2019-01-13T06:33:22.351Z,99.99
2019-01-13T06:34:22.285Z,99.99
2019-01-13T06:35:22.263Z,99.99
2019-01-13T06:36:22.194Z,99.99
2019-01-13T06:37:22.159Z,99.99
2019-01-13T06:38:22.103Z,99.99
2019-01-13T06:39:22.070Z,99.99
2019-01-13T06:40:22.021Z,99.99
2019-01-13T06:41:21.976Z,99.99
2019-01-13T06:42:21.938Z,99.99
2019-01-13T06:43:21.876Z,99.99
2019-01-13T06:44:21.852Z,99.99
2019-01-13T06:45:21.752Z,99.99
2019-01-13T06:46:21.761Z,99.99
2019-01-13T06:47:21.714Z,99.99
2019-01-13T06:48:21.649Z,99.99
2019-01-13T06:49:21.611Z,99.99
2019-01-13T06:50:21.586Z,99.99
2019-01-13T06:51:21.520Z,99.99
2019-01-13T06:52:21.475Z,99.99
2019-01-13T06:53:21.443Z,99.99
2019-01-13T06:54:21.376Z,99.99
2019-01-13T06:55:21.339Z,99.99
2019-01-13T06:56:21.285Z,99.99
2019-01-13T06:57:21.261Z,99.99
2019-01-13T06:58:21.194Z,99.99
2019-01-13T06:59:21.161Z,99.99
2019-01-13T07:00:21.116Z,99.99
2019-01-13T07:01:21.065Z,99.99
2019-01-13T07:02:21.025Z,99.99
2019-01-13T07:03:20.974Z,99.99
2019-01-13T07:04:20.933Z,99.99
2019-01-13T07:05:20.889Z,99.99
2019-01-13T07:06:20.830Z,99.99
2019-01-13T07:07:20.808Z,99.99
2019-01-13T07:08:20.760Z,99.99
2019-01-13T07:09:20.706Z,99.99
2019-01-13T07:10:20.670Z,99.99
2019-01-13T07:11:20.615Z,99.99
2019-01-13T07:12:20.556Z,99.99
2019-01-13T07:13:20.524Z,99.99
2019-01-13T07:14:20.478Z,99.99
2019-01-13T07:15:20.420Z,99.99
2019-01-13T07:16:20.396Z,99.99
2019-01-13T07:17:20.329Z,99.99
2019-01-13T07:18:20.298Z,99.99
2019-01-13T07:19:20.245Z,99.99
2019-01-13T07:20:20.205Z,99.99
2019-01-13T07:21:20.159Z,99.99
2019-01-13T07:22:20.100Z,99.99
2019-01-13T07:23:20.058Z,99.99
2019-01-13T07:24:20.009Z,99.99
2019-01-13T07:25:19.980Z,99.99
2019-01-13T07:26:19.926Z,99.99
2019-01-13T07:27:19.886Z,99.99
2019-01-13T07:28:19.834Z,99.99
2019-01-13T07:29:19.803Z,99.99
2019-01-13T07:30:19.746Z,99.99
2019-01-13T07:31:19.703Z,99.99
2019-01-13T07:32:19.652Z,99.99
2019-01-13T07:33:19.599Z,99.99
2019-01-13T07:34:19.561Z,99.99
2019-01-13T07:35:19.508Z,99.99
2019-01-13T07:36:19.471Z,99.99
2019-01-13T07:37:19.438Z,99.99
2019-01-13T07:38:19.384Z,99.99
2019-01-13T07:39:19.335Z,99.99
2019-01-13T07:40:19.302Z,99.99
2019-01-13T07:41:19.256Z,99.99
2019-01-13T07:42:19.189Z,99.99
2019-01-13T07:43:19.144Z,99.99
2019-01-13T07:44:19.126Z,99.99
2019-01-13T07:45:19.065Z,99.99
2019-01-13T07:46:19.028Z,99.99
2019-01-13T07:47:18.962Z,99.99
2019-01-13T07:48:18.917Z,99.99
2019-01-13T07:49:18.878Z,99.99
2019-01-13T07:50:18.825Z,99.99
2019-01-13T07:51:18.802Z,99.99
2019-01-13T07:52:18.747Z,99.99
2019-01-13T07:53:18.710Z,99.99
2019-01-13T07:54:18.657Z,99.99
2019-01-13T07:55:18.621Z,99.99
2019-01-13T07:56:18.553Z,99.99
2019-01-13T07:57:18.528Z,99.99
2019-01-13T07:58:18.477Z,99.99
2019-01-13T07:59:18.416Z,99.99
2019-01-13T08:00:19.553Z,99.99
2019-01-13T08:01:18.347Z,99.99
2019-01-13T08:02:18.280Z,99.99
2019-01-13T08:03:18.256Z,99.99
2019-01-13T08:04:18.197Z,99.99
2019-01-13T08:05:18.157Z,99.99
2019-01-13T08:06:18.121Z,99.99
2019-01-13T08:07:18.054Z,99.99
2019-01-13T08:08:18.015Z,99.99
2019-01-13T08:09:17.969Z,99.99
2019-01-13T08:10:17.917Z,99.99
2019-01-13T08:11:17.885Z,99.99
2019-01-13T08:12:17.839Z,99.99
2019-01-13T08:13:17.780Z,99.99
2019-01-13T08:14:17.742Z,99.99
2019-01-13T08:15:17.690Z,99.99
2019-01-13T08:16:17.656Z,99.99
2019-01-13T08:17:17.620Z,99.99
2019-01-13T08:18:17.573Z,99.99
2019-01-13T08:19:17.520Z,99.99
2019-01-13T08:20:17.469Z,99.99
2019-01-13T08:21:17.429Z,99.99
2019-01-13T08:22:17.387Z,99.99
2019-01-13T08:23:17.325Z,99.99
2019-01-13T08:24:17.293Z,99.99
2019-01-13T08:25:17.247Z,99.99
2019-01-13T08:26:17.210Z,99.99
2019-01-13T08:27:17.156Z,99.99
2019-01-13T08:28:17.110Z,99.99
2019-01-13T08:29:17.052Z,99.99
2019-01-13T08:30:17.014Z,99.99
2019-01-13T08:31:16.973Z,99.99
2019-01-13T08:32:16.937Z,99.99
2019-01-13T08:33:16.880Z,99.99
2019-01-13T08:34:16.832Z,99.99
2019-01-13T08:35:16.792Z,99.99
2019-01-13T08:36:16.755Z,99.99
2019-01-13T08:37:16.697Z,99.99
2019-01-13T08:38:16.646Z,99.99
2019-01-13T08:39:16.604Z,99.99
2019-01-13T08:40:16.552Z,99.99
2019-01-13T08:41:16.527Z,99.99
2019-01-13T08:42:16.507Z,99.99
2019-01-13T08:43:16.428Z,99.99
2019-01-13T08:44:16.370Z,99.99
2019-01-13T08:45:16.346Z,99.99
2019-01-13T08:46:16.279Z,99.99
2019-01-13T08:47:16.242Z,99.99
2019-01-13T08:48:16.211Z,99.99
2019-01-13T08:49:16.158Z,99.99
2019-01-13T08:50:16.110Z,99.99
2019-01-13T08:51:16.065Z,99.99
2019-01-13T08:52:16.028Z,99.99
2019-01-13T08:53:15.961Z,99.99
2019-01-13T08:54:15.929Z,99.99
2019-01-13T08:55:15.870Z,99.99
2019-01-13T08:56:15.825Z,99.99
2019-01-13T08:57:15.812Z,99.99
2019-01-13T08:58:15.742Z,99.99
2019-01-13T08:59:15.699Z,99.99
2019-01-13T09:00:15.644Z,99.99
2019-01-13T09:01:15.607Z,99.99
2019-01-13T09:02:15.566Z,99.99
2019-01-13T09:03:15.508Z,99.99
2019-01-13T09:04:15.463Z,99.99
2019-01-13T09:05:15.439Z,99.99
2019-01-13T09:06:15.380Z,99.99
2019-01-13T09:07:15.351Z,99.99
2019-01-13T09:08:15.289Z,99.99
2019-01-13T09:09:15.249Z,99.99
2019-01-13T09:10:15.213Z,99.99
2019-01-13T09:11:15.159Z,99.99
2019-01-13T09:12:15.109Z,99.99
2019-01-13T09:13:15.077Z,99.99
2019-01-13T09:14:15.018Z,99.99
2019-01-13T09:15:14.966Z,99.99
2019-01-13T09:16:14.920Z,99.99
2019-01-13T09:17:14.897Z,99.99
2019-01-13T09:18:14.843Z,99.99
2019-01-13T09:19:14.799Z,99.99
2019-01-13T09:20:14.749Z,99.99
2019-01-13T09:21:14.717Z,99.99
2019-01-13T09:22:14.664Z,99.99
2019-01-13T09:23:14.629Z,99.99
2019-01-13T09:24:14.560Z,99.99
2019-01-13T09:25:14.522Z,99.99
2019-01-13T09:26:15.935Z,99.99
2019-01-13T09:27:14.446Z,99.99
2019-01-13T09:28:14.400Z,99.99
2019-01-13T09:29:14.335Z,99.99
2019-01-13T09:30:14.291Z,99.99
2019-01-13T09:31:14.258Z,99.99
2019-01-13T09:32:14.223Z,99.99
2019-01-13T09:33:14.178Z,99.99
2019-01-13T09:34:14.111Z,99.99
2019-01-13T09:35:14.073Z,99.36
2019-01-13T09:36:14.029Z,98.58
2019-01-13T09:37:13.984Z,97.62
2019-01-13T09:38:13.945Z,97.52
2019-01-13T09:39:13.888Z,97.52
2019-01-13T09:40:13.851Z,97.33
2019-01-13T09:41:13.807Z,96.89
2019-01-13T09:42:13.755Z,95.34
2019-01-13T09:43:13.731Z,94.13
2019-01-13T09:44:13.674Z,93.60
2019-01-13T09:45:13.644Z,91.31
2019-01-13T09:46:13.579Z,89.90
2019-01-13T09:47:13.535Z,88.69
2019-01-13T09:48:13.499Z,86.99
2019-01-13T09:49:13.469Z,82.56
2019-01-13T09:50:13.414Z,81.63
2019-01-13T09:51:13.386Z,80.11
2019-01-13T09:52:13.322Z,77.86
2019-01-13T09:53:13.302Z,76.59
2019-01-13T09:54:13.261Z,75.36
2019-01-13T09:55:13.208Z,72.77
2019-01-13T09:56:13.198Z,71.73
2019-01-13T09:57:13.132Z,69.65
2019-01-13T09:58:13.082Z,69.30
2019-01-13T09:59:13.055Z,68.03
2019-01-13T10:00:13.035Z,67.48
2019-01-13T10:01:12.972Z,65.36
2019-01-13T10:02:12.935Z,63.41
2019-01-13T10:03:12.903Z,61.48
2019-01-13T10:04:12.860Z,60.34
2019-01-13T10:05:12.840Z,60.21
2019-01-13T10:06:12.792Z,59.82
2019-01-13T10:07:12.765Z,60.11
2019-01-13T10:08:12.714Z,59.50
2019-01-13T10:09:12.680Z,60.94
2019-01-13T10:10:12.644Z,61.52
2019-01-13T10:11:12.613Z,61.25
2019-01-13T10:12:12.586Z,60.96
2019-01-13T10:13:12.551Z,60.67
2019-01-13T10:14:12.517Z,59.43
2019-01-13T10:15:13.873Z,58.94
2019-01-13T10:16:12.425Z,58.65
2019-01-13T10:17:12.412Z,58.45
2019-01-13T10:18:12.356Z,58.84
2019-01-13T10:19:12.334Z,58.84
2019-01-13T10:20:12.295Z,57.79
2019-01-13T10:21:12.269Z,57.21
2019-01-13T10:22:12.219Z,57.11
2019-01-13T10:23:12.186Z,57.89
2019-01-13T10:24:12.160Z,57.60
2019-01-13T10:25:12.141Z,57.79
2019-01-13T10:26:12.093Z,57.70
2019-01-13T10:27:12.053Z,57.89
2019-01-13T10:28:12.043Z,57.04
2019-01-13T10:29:11.988Z,56.16
2019-01-13T10:30:11.976Z,57.04
2019-01-13T10:31:11.936Z,57.53
2019-01-13T10:32:11.904Z,56.56
2019-01-13T10:33:11.867Z,55.84
2019-01-13T10:34:11.835Z,55.87
2019-01-13T10:35:11.824Z,56.43
2019-01-13T10:36:11.772Z,56.72
2019-01-13T10:37:11.746Z,56.36
2019-01-13T10:38:11.709Z,56.46
2019-01-13T10:39:11.678Z,56.36
2019-01-13T10:40:11.639Z,57.24
2019-01-13T10:41:11.620Z,56.65
2019-01-13T10:42:11.589Z,57.01
2019-01-13T10:43:11.565Z,57.87
2019-01-13T10:44:11.512Z,57.09
2019-01-13T10:45:11.493Z,57.97
2019-01-13T10:46:11.468Z,57.48
2019-01-13T10:47:11.413Z,57.67
2019-01-13T10:48:11.402Z,58.03
2019-01-13T10:49:11.346Z,58.33
2019-01-13T10:50:11.312Z,58.91
2019-01-13T10:51:11.302Z,59.59
2019-01-13T10:52:11.251Z,59.77
2019-01-13T10:53:11.220Z,60.45
2019-01-13T10:54:11.192Z,61.23
2019-01-13T10:55:11.149Z,61.40
2019-01-13T10:56:11.122Z,61.30
2019-01-13T10:57:11.078Z,61.40
2019-01-13T10:58:11.048Z,61.85
2019-01-13T10:59:11.002Z,62.53
2019-01-13T11:00:10.974Z,63.28
2019-01-13T11:01:10.922Z,63.18
2019-01-13T11:02:10.877Z,63.77
2019-01-13T11:03:10.838Z,64.16
2019-01-13T11:04:10.800Z,64.16
2019-01-13T11:05:10.762Z,63.77
2019-01-13T11:06:10.739Z,64.26
2019-01-13T11:07:10.705Z,64.26
2019-01-13T11:08:11.729Z,64.94
2019-01-13T11:09:10.628Z,63.77
2019-01-13T11:10:10.588Z,64.26
2019-01-13T11:11:10.535Z,63.48
2019-01-13T11:12:10.495Z,64.26
2019-01-13T11:13:10.469Z,64.03
2019-01-13T11:14:10.416Z,64.91
2019-01-13T11:15:10.390Z,65.17
2019-01-13T11:16:10.351Z,66.05
2019-01-13T11:17:10.289Z,66.05
2019-01-13T11:18:10.270Z,66.05
2019-01-13T11:19:10.221Z,65.36
2019-01-13T11:20:10.182Z,66.05
2019-01-13T11:21:10.141Z,65.46
2019-01-13T11:22:10.096Z,65.17
2019-01-13T11:23:10.069Z,64.72
2019-01-13T11:24:10.007Z,64.42
2019-01-13T11:25:09.979Z,65.01
2019-01-13T11:26:09.933Z,64.62
2019-01-13T11:27:09.892Z,64.62
2019-01-13T11:28:09.865Z,64.62
2019-01-13T11:29:09.827Z,64.91
2019-01-13T11:30:09.762Z,64.81
2019-01-13T11:31:09.743Z,64.72
2019-01-13T11:32:09.702Z,65.59
2019-01-13T11:33:09.989Z,65.30
2019-01-13T11:34:09.598Z,65.40
2019-01-13T11:35:09.572Z,66.27
2019-01-13T11:36:09.538Z,66.17
2019-01-13T11:37:09.483Z,65.40
2019-01-13T11:38:09.440Z,64.62
2019-01-13T11:39:09.415Z,64.32
2019-01-13T11:40:09.365Z,65.17
2019-01-13T11:41:09.320Z,65.75
2019-01-13T11:42:09.286Z,65.56
2019-01-13T11:43:09.251Z,65.46
2019-01-13T11:44:09.188Z,65.46
2019-01-13T11:45:09.168Z,65.36
2019-01-13T11:46:09.106Z,66.27
2019-01-13T11:47:09.065Z,65.88
2019-01-13T11:48:09.023Z,65.69
2019-01-13T11:49:08.995Z,65.40
2019-01-13T11:50:08.941Z,65.59
2019-01-13T11:51:08.921Z,66.14
2019-01-13T11:52:08.882Z,67.32
2019-01-13T11:53:08.826Z,66.21
2019-01-13T11:54:08.789Z,67.35
2019-01-13T11:55:08.756Z,68.61
2019-01-13T11:56:08.714Z,69.68
2019-01-13T11:57:08.652Z,69.78
2019-01-13T11:58:08.623Z,69.48
2019-01-13T11:59:08.596Z,69.23
2019-01-13T12:00:08.531Z,68.45
2019-01-13T12:01:08.507Z,67.67
2019-01-13T12:02:08.458Z,67.77
2019-01-13T12:03:08.428Z,68.45
2019-01-13T12:04:08.374Z,68.64
2019-01-13T12:05:08.333Z,67.77
2019-01-13T12:06:08.285Z,68.35
2019-01-13T12:07:08.258Z,68.26
2019-01-13T12:08:08.203Z,67.38
2019-01-13T12:09:08.178Z,67.28
2019-01-13T12:10:08.121Z,66.99
2019-01-13T12:11:08.083Z,66.63
2019-01-13T12:12:08.049Z,66.24
2019-01-13T12:13:07.995Z,66.24
2019-01-13T12:14:07.958Z,65.98
2019-01-13T12:15:07.926Z,65.69
2019-01-13T12:16:07.883Z,65.59
2019-01-13T12:17:07.828Z,65.33
2019-01-13T12:18:07.779Z,64.94
2019-01-13T12:19:07.737Z,64.84
2019-01-13T12:20:07.708Z,64.06
2019-01-13T12:21:07.664Z,64.00
2019-01-13T12:22:07.625Z,62.53
2019-01-13T12:23:07.593Z,62.41
2019-01-13T12:24:07.551Z,63.38
2019-01-13T12:25:07.488Z,64.84
2019-01-13T12:26:07.460Z,63.96
2019-01-13T12:27:07.419Z,63.15
2019-01-13T12:28:07.371Z,63.15
2019-01-13T12:29:07.344Z,63.38
2019-01-13T12:30:07.281Z,63.18
2019-01-13T12:31:07.248Z,63.38
2019-01-13T12:32:07.219Z,63.18
2019-01-13T12:33:07.171Z,63.41
2019-01-13T12:34:07.132Z,62.34
2019-01-13T12:35:07.087Z,61.07
2019-01-13T12:36:07.053Z,60.29
2019-01-13T12:37:08.503Z,60.88
2019-01-13T12:38:06.971Z,61.07
2019-01-13T12:39:06.922Z,61.36
2019-01-13T12:40:06.889Z,61.17
2019-01-13T12:41:06.836Z,61.07
2019-01-13T12:42:06.806Z,61.66
2019-01-13T12:43:06.753Z,61.85
2019-01-13T12:44:06.712Z,61.17
2019-01-13T12:45:06.674Z,61.20
2019-01-13T12:46:06.633Z,61.59
2019-01-13T12:47:06.579Z,60.52
2019-01-13T12:48:06.561Z,61.43
2019-01-13T12:49:06.497Z,60.52
2019-01-13T12:50:06.456Z,59.86
2019-01-13T12:51:06.428Z,60.16
2019-01-13T12:52:06.382Z,59.57